createdAt,value
2023-03-03T00:01:20.363Z,49.97
2023-03-03T00:03:47.157Z,50.40
2023-03-03T00:06:14.687Z,51.60
2023-03-03T00:08:41.387Z,53.93
2023-03-03T00:11:08.174Z,57.57
2023-03-03T00:13:56.060Z,59.17
2023-03-03T00:16:23.292Z,59.70
2023-03-03T00:18:50.848Z,63.50
2023-03-03T00:21:50.089Z,64.40
2023-03-03T00:24:43.152Z,65.10
2023-03-03T00:27:34.670Z,64.30
2023-03-03T00:30:01.774Z,74.30
2023-03-03T00:32:39.043Z,71.40
2023-03-03T00:35:23.924Z,76.17
2023-03-03T00:38:04.351Z,66.33
2023-03-03T00:40:37.563Z,71.60
2023-03-03T00:43:24.387Z,76.53
2023-03-03T00:45:53.433Z,72.70
2023-03-03T00:48:23.332Z,85.23
2023-03-03T00:50:52.131Z,91.10
2023-03-03T00:53:20.427Z,92.13
2023-03-03T00:55:51.783Z,90.40
2023-03-03T00:58:21.708Z,93.47
2023-03-03T01:00:50.809Z,84.07
2023-03-03T01:03:24.706Z,86.27
2023-03-03T01:05:52.436Z,90.57
2023-03-03T01:08:19.705Z,93.00
2023-03-03T01:10:51.148Z,83.77
2023-03-03T01:13:20.303Z,81.53
2023-03-03T01:15:47.097Z,78.13
2023-03-03T01:18:14.685Z,84.30
2023-03-03T01:20:41.787Z,75.53
2023-03-03T01:23:08.683Z,82.37
2023-03-03T01:25:35.979Z,78.57
2023-03-03T01:28:03.071Z,84.17
2023-03-03T01:30:30.718Z,76.33
2023-03-03T01:32:57.727Z,84.47
2023-03-03T01:35:24.648Z,70.43
2023-03-03T01:37:51.418Z,73.97
2023-03-03T01:40:27.523Z,78.67
2023-03-03T01:42:54.761Z,77.20
2023-03-03T01:45:21.341Z,76.63
2023-03-03T01:47:53.731Z,78.20
2023-03-03T01:50:39.391Z,65.77
2023-03-03T01:53:12.510Z,75.73
2023-03-03T01:55:41.207Z,69.53
2023-03-03T01:58:16.123Z,77.93
2023-03-03T02:00:46.567Z,71.87
2023-03-03T02:03:13.285Z,68.27
2023-03-03T02:05:41.647Z,76.20
2023-03-03T02:08:12.121Z,64.50
2023-03-03T02:10:38.928Z,63.90
2023-03-03T02:13:05.622Z,71.37
2023-03-03T02:15:37.757Z,64.47
2023-03-03T02:18:11.251Z,70.27
2023-03-03T02:20:59.742Z,66.73
2023-03-03T02:23:32.614Z,64.57
2023-03-03T02:26:05.894Z,71.80
2023-03-03T02:28:35.280Z,71.47
2023-03-03T02:31:02.451Z,74.47
2023-03-03T02:33:29.790Z,76.00
2023-03-03T02:35:56.514Z,82.17
2023-03-03T02:38:42.312Z,89.70
2023-03-03T02:41:42.948Z,85.63
2023-03-03T02:44:16.426Z,84.63
2023-03-03T02:46:47.985Z,83.70
2023-03-03T02:49:20.723Z,89.77
2023-03-03T02:51:47.554Z,76.00
2023-03-03T02:54:16.592Z,84.63
2023-03-03T02:56:43.583Z,89.17
2023-03-03T02:59:10.617Z,78.83
2023-03-03T03:01:37.404Z,79.93
2023-03-03T03:04:10.720Z,72.93
2023-03-03T03:06:37.916Z,78.57
2023-03-03T03:09:06.688Z,76.13
2023-03-03T03:11:35.275Z,79.13
2023-03-03T03:14:03.535Z,81.90
2023-03-03T03:16:32.002Z,75.60
2023-03-03T03:19:00.276Z,71.90
2023-03-03T03:21:27.716Z,68.63
2023-03-03T03:23:54.414Z,73.33
2023-03-03T03:26:21.475Z,73.60
2023-03-03T03:28:49.458Z,66.10
2023-03-03T03:31:17.267Z,64.87
2023-03-03T03:33:44.010Z,70.47
2023-03-03T03:36:11.566Z,57.57
2023-03-03T03:38:38.607Z,64.03
2023-03-03T03:41:06.972Z,59.90
2023-03-03T03:43:34.286Z,55.53
2023-03-03T03:46:01.137Z,66.20
2023-03-03T03:48:28.933Z,64.10
2023-03-03T03:50:55.996Z,63.33
2023-03-03T03:53:22.776Z,63.00
2023-03-03T03:55:49.450Z,59.13
2023-03-03T03:58:18.168Z,52.53
2023-03-03T04:00:46.590Z,59.80
2023-03-03T04:03:17.009Z,58.97
2023-03-03T04:05:43.907Z,53.33
2023-03-03T04:08:11.740Z,57.07
2023-03-03T04:10:38.823Z,63.77
2023-03-03T04:13:05.533Z,58.87
2023-03-03T04:15:32.484Z,61.30
2023-03-03T04:17:59.254Z,58.73
2023-03-03T04:20:25.927Z,55.17
2023-03-03T04:22:52.693Z,54.63
2023-03-03T04:25:19.511Z,54.17
2023-03-03T04:27:46.762Z,55.47
2023-03-03T04:30:15.786Z,53.17
2023-03-03T04:32:42.924Z,48.10
2023-03-03T04:35:10.409Z,49.50
2023-03-03T04:37:37.908Z,67.00
2023-03-03T04:40:09.889Z,52.77
2023-03-03T04:42:36.845Z,56.03
2023-03-03T04:45:05.051Z,42.13
2023-03-03T04:47:33.039Z,45.63
2023-03-03T04:50:00.860Z,51.73
2023-03-03T04:52:27.653Z,56.10
2023-03-03T04:54:54.263Z,51.80
2023-03-03T04:57:20.980Z,49.83
2023-03-03T04:59:47.659Z,54.30
2023-03-03T05:02:14.934Z,50.97
2023-03-03T05:04:41.675Z,48.43
2023-03-03T05:07:08.581Z,43.77
2023-03-03T05:09:35.525Z,46.07
2023-03-03T05:12:02.135Z,49.87
2023-03-03T05:14:28.816Z,51.87
2023-03-03T05:16:55.519Z,48.30
2023-03-03T05:19:22.371Z,53.40
2023-03-03T05:21:49.069Z,47.97
2023-03-03T05:24:16.024Z,51.10
2023-03-03T05:26:42.787Z,48.67
2023-03-03T05:29:09.925Z,49.20
2023-03-03T05:31:37.105Z,52.23
2023-03-03T05:34:03.834Z,51.70
2023-03-03T05:36:30.558Z,58.27
2023-03-03T05:38:57.236Z,55.27
2023-03-03T05:41:24.277Z,51.90
2023-03-03T05:43:50.990Z,57.43
2023-03-03T05:46:17.969Z,56.67
2023-03-03T05:48:45.335Z,47.30
2023-03-03T05:51:11.981Z,55.07
2023-03-03T05:53:38.887Z,52.33
2023-03-03T05:56:05.788Z,44.87
2023-03-03T05:58:32.474Z,47.57
2023-03-03T06:00:59.337Z,46.67
2023-03-03T06:03:25.970Z,52.07
2023-03-03T06:05:52.682Z,59.23
2023-03-03T06:08:19.353Z,56.10
2023-03-03T06:10:46.072Z,51.20
2023-03-03T06:13:12.922Z,47.23
2023-03-03T06:15:39.640Z,50.17
2023-03-03T06:18:06.363Z,51.67
2023-03-03T06:20:33.619Z,50.07
2023-03-03T06:23:00.380Z,62.43
2023-03-03T06:25:27.397Z,53.83
2023-03-03T06:27:54.751Z,58.93
2023-03-03T06:30:21.651Z,59.73
2023-03-03T06:32:48.478Z,58.37
2023-03-03T06:35:15.329Z,57.17
2023-03-03T06:37:42.010Z,60.53
2023-03-03T06:40:09.465Z,59.47
2023-03-03T06:42:36.246Z,66.47
2023-03-03T06:45:02.967Z,68.30
2023-03-03T06:47:29.684Z,62.97
2023-03-03T06:49:59.309Z,61.43
2023-03-03T06:52:27.578Z,63.30
2023-03-03T06:54:58.046Z,58.60
2023-03-03T06:57:30.454Z,66.53
2023-03-03T07:00:17.732Z,63.97
2023-03-03T07:02:44.449Z,65.47
2023-03-03T07:05:15.838Z,68.40
2023-03-03T07:07:43.420Z,59.07
2023-03-03T07:10:27.337Z,60.37
2023-03-03T07:12:56.800Z,65.40
2023-03-03T07:15:26.756Z,61.80
2023-03-03T07:17:58.373Z,63.40
2023-03-03T07:20:32.235Z,66.57
2023-03-03T07:22:59.422Z,56.83
2023-03-03T07:25:32.865Z,63.90
2023-03-03T07:28:22.486Z,57.37
2023-03-03T07:30:50.967Z,59.50
2023-03-03T07:33:34.562Z,53.47
2023-03-03T07:36:03.774Z,54.90
2023-03-03T07:38:51.152Z,58.67
2023-03-03T07:41:26.143Z,52.23
2023-03-03T07:44:04.057Z,57.23
2023-03-03T07:46:45.553Z,60.83
2023-03-03T07:49:35.183Z,56.53
2023-03-03T07:52:18.342Z,62.40
2023-03-03T07:54:46.050Z,68.83
2023-03-03T07:57:21.868Z,59.87
2023-03-03T08:00:29.330Z,57.50
2023-03-03T08:03:17.101Z,60.97
2023-03-03T08:05:46.992Z,62.53
2023-03-03T08:08:32.123Z,71.37
2023-03-03T08:11:03.169Z,66.93
2023-03-03T08:13:39.992Z,64.93
2023-03-03T08:16:09.676Z,66.87
2023-03-03T08:18:51.842Z,60.50
2023-03-03T08:21:21.867Z,59.40
2023-03-03T08:23:53.358Z,66.43
2023-03-03T08:26:22.018Z,57.60
2023-03-03T08:28:49.421Z,60.40
2023-03-03T08:31:28.024Z,57.80
2023-03-03T08:34:01.728Z,63.33
2023-03-03T08:36:28.464Z,62.33
2023-03-03T08:38:55.607Z,58.53
2023-03-03T08:41:22.295Z,55.67
2023-03-03T08:43:49.082Z,59.50
2023-03-03T08:46:16.458Z,64.40
2023-03-03T08:48:43.146Z,58.00
2023-03-03T08:51:09.869Z,59.23
2023-03-03T08:53:38.282Z,60.43
2023-03-03T08:56:05.501Z,59.57
2023-03-03T08:58:35.567Z,59.67
2023-03-03T09:01:03.245Z,51.03
2023-03-03T09:03:30.140Z,54.23
2023-03-03T09:05:56.939Z,54.37
2023-03-03T09:08:23.583Z,55.87
2023-03-03T09:10:50.499Z,55.50
2023-03-03T09:13:21.700Z,52.13
2023-03-03T09:15:49.318Z,58.23
2023-03-03T09:18:25.275Z,60.33
2023-03-03T09:20:54.950Z,60.03
2023-03-03T09:23:54.838Z,63.23
2023-03-03T09:26:28.260Z,64.37
2023-03-03T09:28:58.573Z,58.03
2023-03-03T09:31:33.226Z,57.53
2023-03-03T09:34:00.929Z,66.00
2023-03-03T09:36:38.103Z,57.67
2023-03-03T09:39:19.821Z,53.50
2023-03-03T09:42:31.165Z,55.97
2023-03-03T09:45:22.906Z,56.73
2023-03-03T09:48:09.898Z,53.67
2023-03-03T09:51:09.293Z,59.50
2023-03-03T09:53:46.068Z,58.33
2023-03-03T09:56:15.783Z,64.77
2023-03-03T09:59:11.145Z,67.67
2023-03-03T10:02:29.014Z,56.80
2023-03-03T10:05:08.688Z,55.20
2023-03-03T10:08:03.119Z,65.27
2023-03-03T10:10:36.431Z,58.10
2023-03-03T10:13:06.270Z,60.57
2023-03-03T10:15:52.604Z,61.37
2023-03-03T10:18:42.638Z,63.30
2023-03-03T10:21:35.767Z,69.17
2023-03-03T10:24:02.706Z,68.93
2023-03-03T10:27:09.807Z,52.07
2023-03-03T10:29:56.787Z,53.43
2023-03-03T10:32:49.856Z,55.43
2023-03-03T10:35:26.314Z,54.73
2023-03-03T10:38:14.672Z,52.63
2023-03-03T10:40:44.344Z,59.17
2023-03-03T10:43:32.083Z,57.17
2023-03-03T10:46:14.546Z,66.60
2023-03-03T10:49:00.175Z,60.10
2023-03-03T10:51:35.788Z,73.60
2023-03-03T10:54:24.319Z,62.77
2023-03-03T10:57:17.165Z,49.30
2023-03-03T11:00:02.621Z,47.93
2023-03-03T11:02:47.509Z,46.97
2023-03-03T11:05:23.403Z,52.57
2023-03-03T11:07:57.785Z,60.30
2023-03-03T11:11:02.822Z,69.53
2023-03-03T11:13:56.710Z,41.27
2023-03-03T11:16:44.774Z,71.17
2023-03-03T11:19:25.816Z,46.47
2023-03-03T11:22:23.345Z,49.50
2023-03-03T11:25:03.705Z,44.90
2023-03-03T11:28:05.744Z,41.30
2023-03-03T11:30:42.043Z,41.50
2023-03-03T11:33:52.127Z,42.13
2023-03-03T11:36:30.396Z,37.83
2023-03-03T11:39:01.953Z,33.90
2023-03-03T11:41:38.035Z,41.47
2023-03-03T11:44:23.486Z,34.63
2023-03-03T11:47:12.050Z,40.43
2023-03-03T11:49:41.867Z,33.83
2023-03-03T11:52:11.536Z,32.87
2023-03-03T11:54:56.498Z,39.33
2023-03-03T11:57:50.901Z,38.23
2023-03-03T12:00:50.026Z,41.73
2023-03-03T12:03:19.687Z,49.47
2023-03-03T12:06:01.758Z,44.53
2023-03-03T12:08:33.131Z,36.50
2023-03-03T12:11:07.824Z,34.73
2023-03-03T12:13:40.163Z,31.07
2023-03-03T12:16:17.650Z,35.33
2023-03-03T12:19:13.816Z,33.70
2023-03-03T12:21:58.875Z,28.50
2023-03-03T12:24:25.456Z,31.93
2023-03-03T12:26:59.767Z,31.10
2023-03-03T12:29:33.280Z,31.87
2023-03-03T12:32:14.542Z,32.60
2023-03-03T12:34:58.721Z,32.30
2023-03-03T12:37:37.433Z,28.57
2023-03-03T12:40:24.247Z,29.87
2023-03-03T12:43:01.201Z,27.20
2023-03-03T12:45:36.891Z,31.27
2023-03-03T12:48:15.802Z,32.47
2023-03-03T12:51:18.697Z,35.73
2023-03-03T12:53:45.622Z,30.33
2023-03-03T12:56:34.870Z,36.47
2023-03-03T12:59:23.717Z,32.97
2023-03-03T13:01:59.388Z,36.00
2023-03-03T13:04:38.197Z,34.43
2023-03-03T13:07:12.515Z,43.83
2023-03-03T13:10:07.473Z,42.77
2023-03-03T13:12:49.197Z,40.33
2023-03-03T13:15:31.648Z,42.27
2023-03-03T13:18:04.916Z,39.43
2023-03-03T13:21:11.688Z,38.83
2023-03-03T13:24:19.682Z,41.70
2023-03-03T13:27:08.061Z,47.00
2023-03-03T13:29:41.379Z,47.97
2023-03-03T13:32:23.465Z,49.27
2023-03-03T13:35:03.131Z,45.40
2023-03-03T13:37:43.886Z,42.80
2023-03-03T13:40:13.665Z,44.63
2023-03-03T13:42:42.908Z,51.30
2023-03-03T13:45:44.681Z,48.20
2023-03-03T13:48:35.537Z,41.87
2023-03-03T13:51:24.176Z,44.13
2023-03-03T13:54:17.441Z,45.50
2023-03-03T13:57:07.901Z,44.17
2023-03-03T13:59:55.861Z,39.57
2023-03-03T14:02:56.451Z,41.27
2023-03-03T14:05:36.274Z,44.60
2023-03-03T14:08:30.053Z,43.40
2023-03-03T14:11:11.996Z,43.93
2023-03-03T14:13:55.665Z,43.73
2023-03-03T14:16:58.414Z,47.37
2023-03-03T14:19:26.678Z,40.33
2023-03-03T14:22:15.167Z,44.03
2023-03-03T14:25:00.564Z,42.10
2023-03-03T14:27:34.757Z,45.90
2023-03-03T14:30:31.436Z,45.27
2023-03-03T14:33:01.581Z,41.23
2023-03-03T14:35:50.586Z,42.47
2023-03-03T14:38:20.376Z,39.33
2023-03-03T14:40:48.544Z,46.83
2023-03-03T14:43:26.669Z,47.70
2023-03-03T14:45:55.126Z,46.37
2023-03-03T14:48:30.017Z,45.83
2023-03-03T14:51:34.275Z,50.80
2023-03-03T14:54:00.987Z,51.70
2023-03-03T14:56:34.769Z,48.90
2023-03-03T14:59:19.042Z,47.67
2023-03-03T15:01:46.491Z,50.57
2023-03-03T15:04:16.004Z,46.20
2023-03-03T15:06:45.790Z,46.47
2023-03-03T15:09:39.325Z,44.07
2023-03-03T15:12:38.297Z,44.47
2023-03-03T15:15:05.993Z,45.67
2023-03-03T15:17:37.167Z,49.87
2023-03-03T15:20:10.075Z,47.60
2023-03-03T15:22:55.340Z,43.40
2023-03-03T15:25:42.982Z,45.47
2023-03-03T15:28:16.887Z,48.27
2023-03-03T15:31:08.210Z,42.23
2023-03-03T15:33:59.676Z,38.57
2023-03-03T15:36:49.621Z,43.33
2023-03-03T15:39:47.476Z,38.43
2023-03-03T15:42:47.812Z,38.43
2023-03-03T15:45:37.605Z,39.13
2023-03-03T15:48:04.346Z,35.43
2023-03-03T15:51:09.423Z,33.60
2023-03-03T15:53:56.279Z,39.20
2023-03-03T15:56:42.622Z,38.47
2023-03-03T15:59:16.638Z,41.07
2023-03-03T16:02:00.807Z,43.43
2023-03-03T16:04:34.613Z,38.07
2023-03-03T16:07:04.495Z,39.03
2023-03-03T16:09:36.895Z,39.57
2023-03-03T16:12:27.051Z,35.90
2023-03-03T16:15:26.145Z,38.20
2023-03-03T16:18:17.600Z,40.83
2023-03-03T16:21:06.102Z,40.43
2023-03-03T16:24:01.168Z,38.77
2023-03-03T16:26:44.121Z,37.70
2023-03-03T16:29:52.495Z,41.37
2023-03-03T16:32:41.552Z,41.33
2023-03-03T16:35:14.566Z,35.70
2023-03-03T16:37:53.230Z,37.80
2023-03-03T16:40:23.099Z,32.07
2023-03-03T16:42:57.731Z,36.73
2023-03-03T16:45:51.143Z,30.63
2023-03-03T16:48:42.756Z,33.10
2023-03-03T16:51:15.340Z,31.33
2023-03-03T16:53:51.146Z,31.20
2023-03-03T16:56:39.198Z,33.83
2023-03-03T16:59:21.212Z,36.73
2023-03-03T17:02:12.659Z,37.80
2023-03-03T17:04:57.814Z,36.53
2023-03-03T17:07:58.027Z,36.43
2023-03-03T17:10:37.608Z,35.00
2023-03-03T17:13:23.209Z,33.57
2023-03-03T17:15:49.917Z,38.87
2023-03-03T17:18:37.741Z,35.17
2023-03-03T17:21:34.618Z,33.87
2023-03-03T17:24:08.256Z,35.83
2023-03-03T17:26:50.123Z,34.00
2023-03-03T17:29:57.192Z,40.53
2023-03-03T17:32:41.740Z,33.33
2023-03-03T17:35:50.698Z,33.83
2023-03-03T17:38:48.673Z,36.47
2023-03-03T17:41:26.529Z,39.27
2023-03-03T17:44:07.577Z,40.30
2023-03-03T17:46:42.901Z,39.33
2023-03-03T17:49:39.006Z,36.03
2023-03-03T17:52:37.696Z,36.57
2023-03-03T17:55:22.332Z,42.50
2023-03-03T17:58:04.527Z,40.60
2023-03-03T18:00:37.162Z,35.83
2023-03-03T18:03:41.481Z,38.53
2023-03-03T18:06:17.015Z,40.53
2023-03-03T18:09:14.116Z,36.87
2023-03-03T18:11:56.772Z,34.37
2023-03-03T18:14:42.112Z,34.90
2023-03-03T18:17:24.745Z,36.97
2023-03-03T18:19:59.082Z,35.30
2023-03-03T18:22:32.919Z,32.73
2023-03-03T18:25:09.883Z,31.63
2023-03-03T18:27:39.844Z,37.03
2023-03-03T18:30:20.656Z,35.97
2023-03-03T18:32:56.610Z,32.60
2023-03-03T18:35:29.231Z,35.13
2023-03-03T18:37:56.488Z,33.70
2023-03-03T18:40:34.091Z,31.93
2023-03-03T18:43:38.969Z,34.63
2023-03-03T18:46:09.262Z,32.83
2023-03-03T18:49:03.655Z,32.50
2023-03-03T18:51:39.755Z,31.47
2023-03-03T18:54:12.574Z,31.10
2023-03-03T18:56:45.670Z,33.27
2023-03-03T18:59:30.707Z,37.27
2023-03-03T19:02:15.872Z,31.73
2023-03-03T19:04:56.574Z,36.03
2023-03-03T19:07:29.049Z,27.73
2023-03-03T19:10:00.596Z,27.10
2023-03-03T19:12:47.377Z,26.43
2023-03-03T19:15:38.303Z,26.67
2023-03-03T19:18:15.671Z,23.40
2023-03-03T19:20:48.185Z,18.83
2023-03-03T19:23:21.687Z,15.90
2023-03-03T19:26:29.124Z,16.20
2023-03-03T19:29:46.312Z,9.57
2023-03-03T19:32:40.621Z,11.77
2023-03-03T19:35:35.266Z,10.27
2023-03-03T19:38:19.337Z,8.10
2023-03-03T19:41:17.117Z,9.93
2023-03-03T19:43:54.714Z,10.70
2023-03-03T19:46:46.444Z,9.83
2023-03-03T19:49:27.576Z,8.63
2023-03-03T19:52:08.267Z,8.57
2023-03-03T19:54:59.189Z,10.47
2023-03-03T19:57:40.977Z,9.77
2023-03-03T20:00:16.695Z,5.80
2023-03-03T20:03:10.166Z,6.53
2023-03-03T20:06:09.288Z,6.53
2023-03-03T20:08:53.255Z,9.90
2023-03-03T20:11:35.925Z,6.33
2023-03-03T20:14:10.664Z,7.67
2023-03-03T20:16:41.729Z,8.00
2023-03-03T20:19:24.493Z,8.10
2023-03-03T20:21:58.738Z,6.80
2023-03-03T20:24:54.157Z,12.27
2023-03-03T20:27:29.265Z,6.53
2023-03-03T20:30:31.307Z,10.20
2023-03-03T20:33:29.561Z,7.63
2023-03-03T20:36:14.778Z,14.53
2023-03-03T20:39:00.348Z,12.87
2023-03-03T20:41:33.111Z,17.03
2023-03-03T20:44:12.219Z,15.33
2023-03-03T20:47:20.743Z,18.70
2023-03-03T20:50:02.717Z,13.70
2023-03-03T20:52:35.486Z,16.43
2023-03-03T20:55:16.673Z,14.60
2023-03-03T20:58:09.808Z,15.73
2023-03-03T21:00:48.523Z,13.00
2023-03-03T21:03:34.333Z,13.77
2023-03-03T21:06:09.377Z,15.50
2023-03-03T21:08:49.893Z,13.67
2023-03-03T21:11:20.431Z,13.23
2023-03-03T21:13:54.088Z,15.83
2023-03-03T21:16:20.822Z,15.77
2023-03-03T21:19:10.066Z,15.03
2023-03-03T21:21:42.645Z,17.03
2023-03-03T21:24:15.345Z,15.13
2023-03-03T21:26:58.394Z,13.10
2023-03-03T21:29:30.945Z,18.53
2023-03-03T21:31:58.970Z,17.60
2023-03-03T21:34:32.933Z,16.73
2023-03-03T21:37:01.872Z,18.37
2023-03-03T21:39:30.586Z,18.13
2023-03-03T21:42:01.820Z,16.03
2023-03-03T21:44:29.919Z,16.90
2023-03-03T21:46:58.604Z,16.87
2023-03-03T21:49:25.787Z,22.43
2023-03-03T21:51:52.718Z,15.93
2023-03-03T21:54:19.467Z,14.20
2023-03-03T21:56:48.028Z,14.00
2023-03-03T21:59:14.721Z,19.80
2023-03-03T22:01:41.541Z,13.83
2023-03-03T22:04:08.587Z,15.43
2023-03-03T22:06:36.419Z,15.73
2023-03-03T22:09:05.020Z,14.60
2023-03-03T22:11:32.438Z,12.07
2023-03-03T22:13:59.074Z,17.30
2023-03-03T22:16:25.774Z,18.17
2023-03-03T22:18:52.550Z,15.37
2023-03-03T22:21:19.287Z,15.40
2023-03-03T22:23:46.047Z,11.50
2023-03-03T22:26:12.849Z,17.57
2023-03-03T22:28:39.510Z,15.77
2023-03-03T22:31:06.299Z,16.30
2023-03-03T22:33:33.261Z,15.47
2023-03-03T22:36:00.001Z,14.73
2023-03-03T22:38:26.973Z,17.57
2023-03-03T22:40:54.826Z,18.17
2023-03-03T22:43:21.859Z,21.03
2023-03-03T22:45:48.635Z,15.17
2023-03-03T22:48:15.308Z,16.17
2023-03-03T22:50:43.701Z,17.97
2023-03-03T22:53:10.516Z,18.03
2023-03-03T22:55:37.365Z,14.53
2023-03-03T22:58:05.445Z,19.97
2023-03-03T23:00:33.633Z,13.00
2023-03-03T23:03:00.589Z,15.20
2023-03-03T23:05:27.468Z,17.87
2023-03-03T23:07:54.380Z,15.57
2023-03-03T23:10:21.488Z,12.47
2023-03-03T23:12:48.260Z,17.33
2023-03-03T23:15:15.414Z,18.60
2023-03-03T23:17:46.141Z,17.20
2023-03-03T23:20:16.120Z,22.37
2023-03-03T23:22:42.911Z,18.70
2023-03-03T23:25:11.072Z,15.03
2023-03-03T23:27:38.238Z,16.07
2023-03-03T23:30:05.975Z,23.10
2023-03-03T23:32:32.830Z,22.63
2023-03-03T23:34:59.578Z,21.37
2023-03-03T23:37:26.612Z,17.83
2023-03-03T23:39:53.730Z,19.13
2023-03-03T23:42:20.991Z,20.53
2023-03-03T23:44:47.750Z,23.60
2023-03-03T23:47:14.565Z,13.53
2023-03-03T23:49:41.273Z,16.73
2023-03-03T23:52:08.766Z,16.43
2023-03-03T23:54:35.583Z,16.93
2023-03-03T23:57:02.374Z,22.80
2023-03-03T23:59:29.324Z,21.57
